Brownville, NY

1:20 AM EDT on May 07, 2015 (GMT -0400)
Watertown International | | Change Station
CLOSE
Current Station
Airport
Location: Watertown,
Elevation: 325 ft
Nearby Weather Stations

Elev 325 ft 43.99 °N, 76.03 °W | Updated 24 minutes ago

Clear
Clear
45 °F
Feels Like 43 °F
N
5
Wind Variable Wind from East

Today
High -- | Low -- °F
--% Chance of Precip.
Yesterday
High -- | Low -- °F
Precip. -- in
5:47 AM 8:14 PM
Waning Gibbous, 90% visible
Pressure 30.19 in
Visibility 10.0 miles
Clouds Clear
Windchill 43 °F
Dew Point 40 °F
Humidity 82%
Rainfall 0.00 in
Snow Depth Not available.
UV 0 out of 12
Pollen 10.80 out of 12
Air Quality Not available.
Flu Activity Widespread
METAR KART 070456Z AUTO 09004KT 10SM CLR 07/04 A3019 RMK AO2 SLP222 T00720044 402280011

More Conditions Fewer Conditions

Pressure 30.19 in
Visibility 10.0 miles
Clouds Clear
Windchill 43 °F
Dew Point 40 °F
Humidity 82%
Rainfall 0.00 in
Snow Depth Not available.
UV 0 out of 12
Pollen 10.80 out of 12
Air Quality Not available.
Flu Activity Widespread
METAR KART 070456Z AUTO 09004KT 10SM CLR 07/04 A3019 RMK AO2 SLP222 T00720044 402280011

More Conditions Fewer Conditions

10-Day Weather Forecast

Almanac

Astronomy

May. 07, 2015 Rise Set
Actual Time
Civil Twilight
Nautical Twilight
Astronomical Twilight
Moon
Length of Visible Light
Length of Day
Tomorrow will be .
, % of the Moon is Illuminated

Today's Extremes

State Highs State Lows

Community

WunderPhotos

Upload Photos

1,819,126 photos uploaded!

WunderBlogs® & News

Nearby

Air Quality

  Air Quality AQ Index Pollutant
Not available.

Snow Depth

Station Depth Elevation

Earthquake Activity

City Distance Mag. Time & Date
Minimum magnitude displayed is 2.5.

Coastal Water Temperatures

Place Temperature

Stations

Nearby Weather Stations

Station Location Temp. Windchill Dew Point Humidity Wind Precip. Elev Updated Type